Grand Strand Airport North Myrtle Beach US
ICAO: KCRE
IATA: CRE
Category: Medium
Scheduled Services: No

Elevation: 32 ft
TransAlt. 18000 ft.

Airport Communications:
MYRTLE BEACH APP/DEP:119.2
ATIS:119.625
CTAF:124.6
STRAND GND:121.8
ANDERSON RDO:123.6
STRAND TWR:124.6
UNICOM:122.95

KCRE Zoom In..

Runways:

(A) RW 05 length 5997 ft width 100 ft
---- / hdg 54

(B) RW 23 length 5997 ft width 100 ft
ILS 111.70 / hdg 234

Location; KCRE
Day. 16 / Time. 17.53 Zulu
* Altimeter: 30.05
* Temperature: 29° c. 84.2°f.
* Wind from: 160° Speed 05 kn.
Dewpoint: 20° c.
Visibility: 10 Statute Miles.
Clouds: Clear (automated report).

KCRE 161753Z 16005KT 10SM CLR 29/20 A3005 RMK AO1 SLP178 60007 T02940200 10306 20217 58003


Wind From 160°
Speed 05 kn.

 
 
jpsmedia.com for Web Design worldairports.se 2018   terms of use